Huvudsida
METAR-TAF:

METAR-TAF

Flygplatser :

Naval Station Rota

Rota, Spanien

latitud: 36-39N, longitud: 006-21W, höjd: 26 m

Aktuellt väderrapport

Denna rapport gjordes för 23 minuter sedan, klockan 20:00 UTC
Vind 1 kt varierande vindriktning
Temperatur 25°C
Fuktighet 79%
Tryck 1017 hPa
Sikt 10 km eller mer
Inga moln under 1 500 m eller inga cumulonimbus

METAR: LERT 212000Z VRB01KT CAVOK 25/21 Q1017 NOSIG

Tid: 22:23 (20:23 UTC)

Väderprognos

Denna rapport gjordes för 3 timmar och 23 minuter sedan, klockan 17:00 UTC
Prognos gäller från 21 kl. 18 UTC till 22 kl. 03 UTC
Vind 3 kt varierande vindriktning
Sikt 10 km eller mer
Inga moln under 1 500 m eller inga cumulonimbus

TAF: LERT 211700Z 2118/2203 VRB03KT CAVOK

Aktuella väderrapporter och prognoser från 4000 flygplatser (METAR- och TAF-rapporter).

De tillgängliga stationerna syns som gula och röda prickar på kartan.

För musen över prickarna för att se namnen på stationerna.

Klicka sedan för att få väderrapporter och prognoser.

För att ändra kartan: Klicka på de gröna knapparna med ett svart kors på för att zooma in; den gröna knappen med ett streck på för att zooma ut; eller på de gröna pilarna för angränsande kartor.


METAR-TAF: